createdAt,value
2018-02-14T06:50:49.747Z,4.27
2018-02-14T06:53:18.434Z,5.47
2018-02-14T06:55:46.723Z,5.10
2018-02-14T06:58:15.154Z,4.13
2018-02-14T07:00:43.815Z,3.10
2018-02-14T07:03:12.453Z,3.40
2018-02-14T07:05:41.707Z,2.97
2018-02-14T07:08:10.418Z,3.20
2018-02-14T07:10:39.863Z,3.07
2018-02-14T07:13:08.126Z,3.30
2018-02-14T07:15:37.039Z,3.00
2018-02-14T07:18:05.090Z,3.13
2018-02-14T07:20:33.702Z,3.10
2018-02-14T07:23:01.770Z,3.10
2018-02-14T07:25:29.887Z,3.30
2018-02-14T07:28:00.611Z,3.00
2018-02-14T07:30:28.832Z,3.00
2018-02-14T07:32:56.768Z,3.20
2018-02-14T07:35:24.871Z,3.10
2018-02-14T07:37:52.939Z,2.90
2018-02-14T07:40:21.750Z,3.03
2018-02-14T07:42:50.051Z,3.10
2018-02-14T07:45:18.452Z,2.57
2018-02-14T07:47:46.690Z,3.00
2018-02-14T07:50:15.526Z,2.80
2018-02-14T07:52:45.259Z,2.97
2018-02-14T07:55:14.132Z,3.50
2018-02-14T07:57:43.150Z,3.50
2018-02-14T08:00:11.660Z,2.70
2018-02-14T08:02:39.707Z,2.63
2018-02-14T08:05:07.626Z,2.97
2018-02-14T08:07:36.500Z,3.03
2018-02-14T08:10:04.600Z,2.80
2018-02-14T08:12:32.979Z,2.93
2018-02-14T08:15:01.341Z,3.20
2018-02-14T08:17:30.239Z,3.00
2018-02-14T08:19:58.508Z,3.10
2018-02-14T08:22:27.502Z,2.97
2018-02-14T08:24:56.286Z,2.93
2018-02-14T08:27:24.811Z,3.20
2018-02-14T08:29:57.882Z,3.03
2018-02-14T08:32:27.687Z,3.27
2018-02-14T08:34:55.691Z,3.90
2018-02-14T08:37:24.204Z,3.77
2018-02-14T08:39:52.563Z,4.33
2018-02-14T08:42:33.887Z,5.27
2018-02-14T08:45:10.118Z,4.83
2018-02-14T08:47:39.483Z,5.37
2018-02-14T08:50:08.200Z,5.23
2018-02-14T08:52:37.075Z,5.87
2018-02-14T08:55:05.586Z,5.87
2018-02-14T08:57:34.955Z,5.93
2018-02-14T09:00:03.725Z,6.37
2018-02-14T09:02:35.417Z,6.13
2018-02-14T09:05:04.256Z,7.00
2018-02-14T09:07:33.167Z,6.37
2018-02-14T09:10:02.307Z,6.37
2018-02-14T09:12:31.514Z,7.87
2018-02-14T09:15:00.394Z,7.17
2018-02-14T09:17:28.867Z,7.50
2018-02-14T09:19:57.009Z,7.23
2018-02-14T09:22:25.312Z,7.40
2018-02-14T09:24:54.000Z,7.30
2018-02-14T09:27:23.709Z,8.03
2018-02-14T09:29:52.379Z,8.47
2018-02-14T09:32:21.347Z,9.33
2018-02-14T09:34:50.162Z,9.03
2018-02-14T09:37:21.976Z,8.97
2018-02-14T09:39:50.520Z,9.43
2018-02-14T09:42:25.875Z,8.80
2018-02-14T09:44:54.872Z,9.47
2018-02-14T09:47:30.237Z,9.30
2018-02-14T09:49:59.021Z,9.27
2018-02-14T09:52:27.688Z,10.23
2018-02-14T09:54:56.558Z,9.80
2018-02-14T09:57:25.126Z,10.90
2018-02-14T09:59:54.181Z,11.03
2018-02-14T10:02:22.714Z,11.17
2018-02-14T10:04:51.368Z,11.70
2018-02-14T10:07:20.598Z,12.27
2018-02-14T10:09:50.180Z,12.23
2018-02-14T10:12:19.618Z,11.93
2018-02-14T10:14:48.143Z,12.47
2018-02-14T10:17:16.873Z,12.77
2018-02-14T10:19:45.604Z,12.87
2018-02-14T10:22:14.264Z,12.93
2018-02-14T10:24:42.718Z,13.17
2018-02-14T10:27:15.536Z,13.50
2018-02-14T10:29:44.513Z,13.90
2018-02-14T10:32:13.174Z,14.67
2018-02-14T10:34:42.367Z,14.33
2018-02-14T10:37:11.294Z,15.37
2018-02-14T10:39:40.264Z,15.07
2018-02-14T10:42:09.043Z,15.97
2018-02-14T10:44:38.241Z,17.53
2018-02-14T10:47:06.971Z,15.63
2018-02-14T10:49:36.266Z,15.80
2018-02-14T10:52:04.558Z,15.83
2018-02-14T10:54:38.241Z,15.17
2018-02-14T10:57:06.887Z,15.93
2018-02-14T10:59:36.760Z,16.17
2018-02-14T11:02:05.935Z,14.83
2018-02-14T11:59:30.485Z,18.47
2018-02-14T12:01:59.457Z,17.87
2018-02-14T12:04:27.501Z,17.77
2018-02-14T12:07:00.588Z,17.93
2018-02-14T12:09:28.781Z,16.47
2018-02-14T12:12:00.397Z,16.83
2018-02-14T12:14:29.114Z,16.53
2018-02-14T12:16:57.466Z,15.10
2018-02-14T12:19:25.710Z,15.83
2018-02-14T12:21:53.753Z,14.60
2018-02-14T12:24:22.200Z,14.10
2018-02-14T12:26:50.520Z,12.77
2018-02-14T12:29:18.464Z,13.50
2018-02-14T12:31:46.568Z,12.83
2018-02-14T12:34:15.026Z,12.93
2018-02-14T12:36:44.208Z,13.17
2018-02-14T12:39:12.476Z,12.90
2018-02-14T12:41:40.703Z,14.90
2018-02-14T12:44:09.511Z,15.10
2018-02-14T12:46:38.259Z,17.53
2018-02-14T12:49:07.121Z,18.43
2018-02-14T12:51:36.647Z,20.20
2018-02-14T12:54:05.694Z,19.27
2018-02-14T12:56:34.018Z,20.20
2018-02-14T12:59:03.308Z,19.63
2018-02-14T13:01:32.174Z,20.57
2018-02-14T13:04:00.572Z,20.13
2018-02-14T13:06:29.146Z,20.23
2018-02-14T13:08:59.288Z,17.87
2018-02-14T13:11:27.453Z,18.27
2018-02-14T13:13:55.612Z,19.58
2018-02-14T13:16:24.918Z,17.63
2018-02-14T13:18:53.969Z,17.37
2018-02-14T13:21:22.168Z,16.33
2018-02-14T13:23:50.232Z,17.93
2018-02-14T13:26:18.224Z,17.73
2018-02-14T13:28:47.557Z,19.07
2018-02-14T13:31:15.619Z,17.93
2018-02-14T13:33:43.947Z,18.13
2018-02-14T13:36:11.910Z,17.93
2018-02-14T13:38:40.387Z,17.63
2018-02-14T13:41:08.459Z,18.62
2018-02-14T13:43:36.601Z,17.83
2018-02-14T13:46:04.807Z,17.53
2018-02-14T13:48:33.466Z,16.80
2018-02-14T13:51:01.570Z,17.97
2018-02-14T13:53:29.624Z,17.37
2018-02-14T13:55:58.025Z,17.23
2018-02-14T13:58:26.175Z,17.97
2018-02-14T14:00:55.282Z,17.77
2018-02-14T14:03:23.322Z,17.67
2018-02-14T14:05:51.421Z,17.23
2018-02-14T14:08:19.916Z,18.80
2018-02-14T14:10:47.876Z,17.23
2018-02-14T14:23:10.647Z,19.13
2018-02-14T14:28:49.937Z,18.63
2018-02-14T15:04:42.241Z,27.87
2018-02-14T15:10:10.603Z,25.90
2018-02-14T15:15:56.202Z,24.50
2018-02-14T15:18:38.540Z,24.83
2018-02-14T15:21:26.566Z,23.37
2018-02-14T15:24:05.790Z,21.70
2018-02-14T15:26:48.513Z,22.20
2018-02-14T15:29:36.669Z,20.83
2018-02-14T15:34:54.415Z,19.87
2018-02-14T15:37:40.640Z,20.77
2018-02-14T15:43:44.846Z,19.67
2018-02-14T15:46:37.984Z,19.20
2018-02-14T15:52:24.936Z,17.50
2018-02-14T16:01:34.953Z,17.90
2018-02-14T16:04:13.734Z,17.83
